createdAt,value
2018-11-11T00:01:17.369Z,19.87
2018-11-11T00:03:45.626Z,20.63
2018-11-11T00:06:13.919Z,21.07
2018-11-11T00:08:42.185Z,21.37
2018-11-11T00:11:10.461Z,19.33
2018-11-11T00:13:38.782Z,19.23
2018-11-11T00:16:07.062Z,18.30
2018-11-11T00:18:35.386Z,19.50
2018-11-11T00:21:03.672Z,18.63
2018-11-11T00:23:31.985Z,19.10
2018-11-11T00:26:00.296Z,20.30
2018-11-11T00:28:28.652Z,18.63
2018-11-11T00:30:56.883Z,19.20
2018-11-11T00:33:25.194Z,18.07
2018-11-11T00:35:53.494Z,17.73
2018-11-11T00:38:21.837Z,16.77
2018-11-11T00:40:50.172Z,16.77
2018-11-11T00:43:18.501Z,17.20
2018-11-11T00:45:46.831Z,17.23
2018-11-11T00:48:15.130Z,17.03
2018-11-11T00:50:43.442Z,17.93
2018-11-11T00:53:11.753Z,17.70
2018-11-11T00:55:40.816Z,17.50
2018-11-11T00:58:09.109Z,18.10
2018-11-11T01:00:37.426Z,16.63
2018-11-11T01:03:05.897Z,18.30
2018-11-11T01:05:34.194Z,17.37
2018-11-11T01:08:02.501Z,18.10
2018-11-11T01:10:30.817Z,17.63
2018-11-11T01:12:59.100Z,16.93
2018-11-11T01:15:27.416Z,18.00
2018-11-11T01:17:55.708Z,18.03
2018-11-11T01:20:24.003Z,17.57
2018-11-11T01:22:52.323Z,16.33
2018-11-11T01:25:20.621Z,16.63
2018-11-11T01:27:48.929Z,15.73
2018-11-11T01:30:17.237Z,17.00
2018-11-11T01:32:45.541Z,16.33
2018-11-11T01:35:15.010Z,15.13
2018-11-11T01:37:43.676Z,15.63
2018-11-11T01:40:12.084Z,16.47
2018-11-11T01:42:40.453Z,16.53
2018-11-11T01:45:12.172Z,15.70
2018-11-11T01:47:40.500Z,15.60
2018-11-11T01:50:09.654Z,16.30
2018-11-11T01:52:37.968Z,15.03
2018-11-11T01:55:06.312Z,15.70
2018-11-11T01:57:34.621Z,16.27
2018-11-11T02:00:02.977Z,15.43
2018-11-11T02:02:31.424Z,15.30
2018-11-11T02:04:59.733Z,15.23
2018-11-11T02:07:28.028Z,15.93
2018-11-11T02:09:56.409Z,14.77
2018-11-11T02:12:24.592Z,17.00
2018-11-11T02:14:52.985Z,14.17
2018-11-11T02:17:21.320Z,16.83
2018-11-11T02:19:49.629Z,14.90
2018-11-11T02:22:17.908Z,14.87
2018-11-11T02:24:46.221Z,15.20
2018-11-11T02:27:14.549Z,14.63
2018-11-11T02:29:42.852Z,15.90
2018-11-11T02:32:11.152Z,19.30
2018-11-11T02:34:39.449Z,17.10
2018-11-11T02:37:07.775Z,17.63
2018-11-11T02:39:36.044Z,19.00
2018-11-11T02:42:04.336Z,17.70
2018-11-11T02:44:32.613Z,18.13
2018-11-11T02:47:00.893Z,18.83
2018-11-11T02:49:29.267Z,18.70
2018-11-11T02:51:57.735Z,17.70
2018-11-11T02:54:26.030Z,20.37
2018-11-11T02:56:54.317Z,19.97
2018-11-11T02:59:22.576Z,19.87
2018-11-11T03:01:50.866Z,19.63
2018-11-11T03:04:19.167Z,23.27
2018-11-11T03:06:47.408Z,19.37
2018-11-11T03:09:15.840Z,17.10
2018-11-11T03:11:44.112Z,17.57
2018-11-11T03:14:12.364Z,16.67
2018-11-11T03:16:40.633Z,16.07
2018-11-11T03:19:09.081Z,15.20
2018-11-11T03:21:37.364Z,15.20
2018-11-11T03:24:06.016Z,15.40
2018-11-11T03:26:34.352Z,15.40
2018-11-11T03:29:02.626Z,15.83
2018-11-11T03:31:30.892Z,16.00
2018-11-11T03:33:59.292Z,17.00
2018-11-11T03:36:27.699Z,15.97
2018-11-11T03:38:56.159Z,18.07
2018-11-11T03:41:24.497Z,16.93
2018-11-11T03:43:52.931Z,17.80
2018-11-11T03:46:21.352Z,17.33
2018-11-11T03:48:49.729Z,16.67
2018-11-11T03:51:18.196Z,18.57
2018-11-11T03:53:46.572Z,17.50
2018-11-11T03:56:15.015Z,18.30
2018-11-11T03:58:43.441Z,17.80
2018-11-11T04:01:11.772Z,18.87
2018-11-11T04:03:40.164Z,18.03
2018-11-11T04:06:08.567Z,17.13
2018-11-11T04:08:36.956Z,17.03
2018-11-11T04:11:05.720Z,16.70
2018-11-11T04:13:34.178Z,17.33
2018-11-11T04:16:02.526Z,16.50
2018-11-11T04:18:30.938Z,15.60
2018-11-11T04:20:59.329Z,15.40
2018-11-11T04:23:27.876Z,15.70
2018-11-11T04:25:56.324Z,15.80
2018-11-11T04:28:24.767Z,14.93
2018-11-11T04:30:53.218Z,16.40
2018-11-11T04:33:21.655Z,16.03
2018-11-11T04:35:50.049Z,16.10
2018-11-11T04:38:18.421Z,15.40
2018-11-11T04:40:46.781Z,15.60
2018-11-11T04:43:15.244Z,14.37
2018-11-11T04:45:43.567Z,14.97
2018-11-11T04:48:12.011Z,15.77
2018-11-11T04:50:40.392Z,15.37
2018-11-11T04:53:08.856Z,15.50
2018-11-11T04:55:37.246Z,14.80
2018-11-11T04:58:05.662Z,14.53
2018-11-11T05:00:34.037Z,14.97
2018-11-11T05:03:02.463Z,13.40
2018-11-11T05:05:30.873Z,14.30
2018-11-11T05:07:59.249Z,13.20
2018-11-11T05:10:27.624Z,14.23
2018-11-11T05:12:56.004Z,14.13
2018-11-11T05:15:24.444Z,15.57
2018-11-11T05:17:52.780Z,14.03
2018-11-11T05:20:21.178Z,13.93
2018-11-11T05:22:49.624Z,15.23
2018-11-11T05:25:18.038Z,14.27
2018-11-11T05:27:46.473Z,14.23
2018-11-11T05:30:15.250Z,14.53
2018-11-11T05:32:43.580Z,13.27
2018-11-11T05:35:12.412Z,14.00
2018-11-11T05:37:41.472Z,13.67
2018-11-11T05:40:13.573Z,14.90
2018-11-11T05:42:42.788Z,14.10
2018-11-11T05:45:12.076Z,14.00
2018-11-11T05:47:40.968Z,13.77
2018-11-11T05:50:11.188Z,13.30
2018-11-11T05:52:39.784Z,12.60
2018-11-11T05:55:08.454Z,12.27
2018-11-11T05:57:36.729Z,11.90
2018-11-11T06:00:06.190Z,11.67
2018-11-11T06:02:34.472Z,12.53
2018-11-11T06:05:02.731Z,12.73
2018-11-11T06:07:30.997Z,12.80
2018-11-11T06:09:59.268Z,12.77
2018-11-11T06:12:27.620Z,11.37
2018-11-11T06:14:55.912Z,13.60
2018-11-11T06:17:24.176Z,12.50
2018-11-11T06:19:52.441Z,12.83
2018-11-11T06:22:20.699Z,12.50
2018-11-11T06:24:48.976Z,12.60
2018-11-11T06:27:17.243Z,11.03
2018-11-11T06:29:45.518Z,12.17
2018-11-11T06:32:13.764Z,11.17
2018-11-11T06:34:42.021Z,11.20
2018-11-11T06:37:10.294Z,11.57
2018-11-11T06:39:38.555Z,12.20
2018-11-11T06:42:06.827Z,10.93
2018-11-11T06:44:35.076Z,11.80
2018-11-11T06:47:03.349Z,11.30
2018-11-11T06:49:31.610Z,10.80
2018-11-11T06:51:59.881Z,10.47
2018-11-11T06:54:28.176Z,10.77
2018-11-11T06:56:56.478Z,9.60
2018-11-11T06:59:24.742Z,9.97
2018-11-11T07:01:53.056Z,10.13
2018-11-11T07:04:21.299Z,9.60
2018-11-11T07:06:49.569Z,9.57
2018-11-11T07:09:17.832Z,10.20
2018-11-11T07:11:46.088Z,9.63
2018-11-11T07:14:14.448Z,10.10
2018-11-11T07:16:42.637Z,10.53
2018-11-11T07:19:10.911Z,10.00
2018-11-11T07:21:39.172Z,10.10
2018-11-11T07:24:07.494Z,10.10
2018-11-11T07:26:35.729Z,10.27
2018-11-11T07:29:04.025Z,10.20
2018-11-11T07:31:32.340Z,9.80
2018-11-11T07:34:00.549Z,10.00
2018-11-11T07:36:28.809Z,9.90
2018-11-11T07:38:57.103Z,10.27
2018-11-11T07:41:25.362Z,9.60
2018-11-11T07:43:53.609Z,9.90
2018-11-11T07:46:21.898Z,9.77
2018-11-11T07:48:50.140Z,9.40
2018-11-11T07:51:18.401Z,9.83
2018-11-11T07:53:46.689Z,10.37
2018-11-11T07:56:14.987Z,9.90
2018-11-11T07:58:43.256Z,9.80
2018-11-11T08:01:11.517Z,9.60
2018-11-11T08:03:39.814Z,9.23
2018-11-11T08:06:08.110Z,9.57
2018-11-11T08:08:36.352Z,9.47
2018-11-11T08:11:16.166Z,9.37
2018-11-11T08:13:44.350Z,9.20
2018-11-11T08:16:12.614Z,8.70
2018-11-11T08:18:40.905Z,9.17
2018-11-11T08:21:09.164Z,9.37
2018-11-11T08:23:37.484Z,9.10
2018-11-11T08:26:05.921Z,9.97
2018-11-11T08:28:34.164Z,10.10
2018-11-11T08:31:02.416Z,9.37
2018-11-11T08:33:30.730Z,9.43
2018-11-11T08:35:58.996Z,9.17
2018-11-11T08:38:27.284Z,8.93
2018-11-11T08:40:55.549Z,8.97
2018-11-11T08:43:23.829Z,8.43
2018-11-11T08:45:52.104Z,9.23
2018-11-11T08:48:20.424Z,8.60
2018-11-11T08:50:48.638Z,8.20
2018-11-11T08:53:16.963Z,9.20
2018-11-11T08:55:45.261Z,9.23
2018-11-11T08:58:13.579Z,9.43
2018-11-11T09:00:41.785Z,9.67
2018-11-11T09:03:10.053Z,9.93
2018-11-11T09:05:38.316Z,9.83
2018-11-11T09:08:06.600Z,10.90
2018-11-11T09:10:34.869Z,10.87
2018-11-11T09:13:08.212Z,10.37
2018-11-11T09:15:36.541Z,11.50
2018-11-11T09:18:04.933Z,12.03
2018-11-11T09:20:33.320Z,11.20
2018-11-11T09:23:01.591Z,10.80
2018-11-11T09:25:29.898Z,11.40
2018-11-11T09:27:58.242Z,10.73
2018-11-11T09:30:26.611Z,10.53
2018-11-11T09:32:54.798Z,10.83
2018-11-11T09:35:23.136Z,10.17
2018-11-11T09:37:51.328Z,9.27
2018-11-11T09:40:19.600Z,9.60
2018-11-11T09:42:47.864Z,10.47
2018-11-11T09:45:16.497Z,11.20
2018-11-11T09:47:45.421Z,10.07
2018-11-11T09:50:15.217Z,10.40
2018-11-11T09:52:43.539Z,10.87
2018-11-11T09:55:12.808Z,10.23
2018-11-11T09:57:41.377Z,9.73
2018-11-11T10:00:13.481Z,10.00
2018-11-11T10:02:42.884Z,10.53
2018-11-11T10:05:26.990Z,11.33
2018-11-11T10:07:59.682Z,9.83
2018-11-11T10:10:40.416Z,9.63
2018-11-11T10:13:17.132Z,9.23
2018-11-11T10:16:22.521Z,9.87
2018-11-11T10:19:03.485Z,9.93
2018-11-11T10:21:35.299Z,9.70
2018-11-11T10:24:11.689Z,9.97
2018-11-11T10:26:49.784Z,10.30
2018-11-11T10:30:24.852Z,11.23
2018-11-11T10:33:26.336Z,10.60
2018-11-11T10:36:01.022Z,10.80
2018-11-11T10:38:36.158Z,10.50
2018-11-11T10:41:09.237Z,10.67
2018-11-11T10:43:55.980Z,10.33
2018-11-11T10:46:46.577Z,10.13
2018-11-11T10:49:18.805Z,9.70
2018-11-11T10:51:47.101Z,10.43
2018-11-11T10:54:15.442Z,10.13
2018-11-11T10:56:43.684Z,11.17
2018-11-11T10:59:11.990Z,10.17
2018-11-11T11:01:45.556Z,10.43
2018-11-11T11:04:13.899Z,10.17
2018-11-11T11:06:47.576Z,10.33
2018-11-11T11:09:15.866Z,9.93
2018-11-11T11:11:44.744Z,9.80
2018-11-11T11:14:13.731Z,10.20
2018-11-11T11:16:42.118Z,11.33
2018-11-11T11:19:10.417Z,11.03
2018-11-11T11:21:38.771Z,11.37
2018-11-11T11:24:07.085Z,11.87
2018-11-11T11:26:35.428Z,12.27
2018-11-11T11:29:03.733Z,11.37
2018-11-11T11:31:32.072Z,11.33
2018-11-11T11:34:00.482Z,11.97
2018-11-11T11:36:28.772Z,10.90
2018-11-11T11:38:57.057Z,10.90
2018-11-11T11:41:25.454Z,11.87
2018-11-11T11:43:53.673Z,11.57
2018-11-11T11:46:21.938Z,10.67
2018-11-11T11:48:50.207Z,11.17
2018-11-11T11:51:18.483Z,10.73
2018-11-11T11:53:46.752Z,10.67
2018-11-11T11:56:15.021Z,10.87
2018-11-11T11:58:43.305Z,11.23
2018-11-11T12:01:11.605Z,9.97
2018-11-11T12:03:40.629Z,10.80
2018-11-11T12:06:08.976Z,9.93
2018-11-11T12:08:37.277Z,10.10
2018-11-11T12:11:05.692Z,9.70
2018-11-11T12:13:34.056Z,9.93
2018-11-11T12:16:02.316Z,10.33
2018-11-11T12:18:30.621Z,8.90
2018-11-11T12:20:58.897Z,9.13
2018-11-11T12:23:28.434Z,8.60
2018-11-11T12:25:59.057Z,9.73
2018-11-11T12:28:27.422Z,8.67
2018-11-11T12:30:55.789Z,8.60
2018-11-11T12:33:23.985Z,8.93
2018-11-11T12:35:52.255Z,9.57
2018-11-11T12:38:26.895Z,9.47
2018-11-11T12:40:55.169Z,8.67
2018-11-11T12:43:23.520Z,8.53
2018-11-11T12:45:51.789Z,8.70
2018-11-11T12:48:20.065Z,9.63
2018-11-11T12:50:48.346Z,8.33
2018-11-11T12:53:16.649Z,8.03
2018-11-11T12:55:44.980Z,8.40
2018-11-11T12:58:13.285Z,8.17
2018-11-11T13:00:41.612Z,8.27
2018-11-11T13:03:09.865Z,7.47
2018-11-11T13:05:38.144Z,8.20
2018-11-11T13:08:06.485Z,8.00
2018-11-11T13:10:34.680Z,7.30
2018-11-11T13:13:02.964Z,7.63
2018-11-11T13:15:31.297Z,7.40
2018-11-11T13:17:59.560Z,7.30
2018-11-11T13:20:27.829Z,6.80
2018-11-11T13:22:56.391Z,72.77
2018-11-11T13:25:24.510Z,7.37
2018-11-11T13:27:52.784Z,7.17
2018-11-11T13:30:21.052Z,4.97
2018-11-11T13:32:49.481Z,6.70
2018-11-11T13:35:17.762Z,5.63
2018-11-11T13:37:46.396Z,5.80
2018-11-11T13:40:17.018Z,5.20
2018-11-11T13:42:46.434Z,4.87
2018-11-11T13:45:16.918Z,5.00
2018-11-11T13:47:46.753Z,5.10
2018-11-11T13:50:24.494Z,6.73
2018-11-11T13:53:00.929Z,4.97
2018-11-11T13:55:29.635Z,4.93
2018-11-11T13:57:58.492Z,4.67
2018-11-11T14:00:28.116Z,4.70
2018-11-11T14:02:57.089Z,5.03
2018-11-11T14:05:25.455Z,4.70
2018-11-11T14:07:53.773Z,4.90
2018-11-11T14:10:22.050Z,4.70
2018-11-11T14:12:50.340Z,35.53
2018-11-11T14:15:20.499Z,25.10
2018-11-11T14:17:49.260Z,14.93
2018-11-11T14:20:19.022Z,5.90
2018-11-11T14:22:48.318Z,5.60
2018-11-11T14:25:20.433Z,5.17
2018-11-11T14:27:48.669Z,5.00
2018-11-11T14:30:18.454Z,5.07
2018-11-11T14:32:47.624Z,5.33
2018-11-11T14:35:15.849Z,5.07
2018-11-11T14:37:44.416Z,4.90
2018-11-11T14:40:19.925Z,5.30
2018-11-11T14:42:48.272Z,5.67
2018-11-11T14:45:17.546Z,5.23
2018-11-11T14:47:47.031Z,5.50
2018-11-11T14:50:16.185Z,5.80
2018-11-11T14:52:45.032Z,6.37
2018-11-11T14:55:20.473Z,5.70
2018-11-11T14:57:49.776Z,5.50
2018-11-11T15:00:20.293Z,4.90
2018-11-11T15:03:20.801Z,5.67
2018-11-11T15:05:49.401Z,5.40
2018-11-11T15:08:17.673Z,5.30
2018-11-11T15:10:45.957Z,5.50
2018-11-11T15:13:15.345Z,5.70
2018-11-11T15:15:43.614Z,5.63
2018-11-11T15:18:11.934Z,5.70
2018-11-11T15:20:40.537Z,5.90
2018-11-11T15:23:09.191Z,6.40
2018-11-11T15:25:37.481Z,5.93
2018-11-11T15:28:06.461Z,6.17
2018-11-11T15:30:36.043Z,6.03
2018-11-11T15:33:05.064Z,6.40
2018-11-11T15:35:33.368Z,6.07
2018-11-11T15:38:01.774Z,5.70
2018-11-11T15:40:31.332Z,6.00
2018-11-11T15:42:59.942Z,5.90
2018-11-11T15:45:31.478Z,6.23
2018-11-11T15:48:00.145Z,7.33
2018-11-11T15:50:29.652Z,6.83
2018-11-11T15:52:59.198Z,7.90
2018-11-11T15:55:28.700Z,8.20
2018-11-11T15:57:57.016Z,8.83
2018-11-11T16:00:28.541Z,10.93
2018-11-11T16:02:56.848Z,10.17
2018-11-11T16:05:25.217Z,10.50
2018-11-11T16:07:54.057Z,10.00
2018-11-11T16:10:27.588Z,10.33
2018-11-11T16:12:55.963Z,11.73
2018-11-11T16:15:26.535Z,11.47
2018-11-11T16:17:56.361Z,10.77
2018-11-11T16:20:25.955Z,10.37
2018-11-11T16:22:55.589Z,11.00
2018-11-11T16:25:23.969Z,12.27
2018-11-11T16:27:52.189Z,12.77
2018-11-11T16:30:23.531Z,13.00
2018-11-11T16:32:52.380Z,13.50
2018-11-11T16:35:22.092Z,13.87
2018-11-11T16:37:50.379Z,12.57
2018-11-11T16:40:22.972Z,14.10
2018-11-11T16:42:51.684Z,15.10
2018-11-11T16:45:21.123Z,15.53
2018-11-11T16:47:49.469Z,15.20
2018-11-11T16:50:20.142Z,15.37
2018-11-11T16:52:49.269Z,15.33
2018-11-11T16:55:18.856Z,15.67
2018-11-11T16:57:47.121Z,14.73
2018-11-11T17:00:17.714Z,15.70
2018-11-11T17:02:46.535Z,16.47
2018-11-11T17:05:16.269Z,16.33
2018-11-11T17:07:44.867Z,16.57
2018-11-11T17:10:15.628Z,16.47
2018-11-11T17:12:44.773Z,16.57
2018-11-11T17:15:15.503Z,17.37
2018-11-11T17:17:43.877Z,18.53
2018-11-11T17:20:13.945Z,20.27
2018-11-11T17:22:42.565Z,18.80
2018-11-11T17:25:12.139Z,16.83
2018-11-11T17:27:40.486Z,17.93
2018-11-11T17:30:11.609Z,17.87
2018-11-11T17:32:40.084Z,18.77
2018-11-11T17:35:08.812Z,18.63
2018-11-11T17:37:37.119Z,16.97
2018-11-11T17:40:08.983Z,16.53
2018-11-11T17:42:37.588Z,17.73
2018-11-11T17:45:06.516Z,17.70
2018-11-11T17:47:34.515Z,19.23
2018-11-11T17:50:02.829Z,15.30
2018-11-11T17:52:31.208Z,18.13
2018-11-11T17:54:59.722Z,19.77
2018-11-11T17:57:27.980Z,19.23
2018-11-11T17:59:56.568Z,19.43
2018-11-11T18:02:24.865Z,19.30
2018-11-11T18:04:53.226Z,20.47
2018-11-11T18:07:21.509Z,19.83
2018-11-11T18:09:49.791Z,21.97
2018-11-11T18:12:18.061Z,19.90
2018-11-11T18:14:46.320Z,22.37
2018-11-11T18:17:14.639Z,20.70
2018-11-11T18:19:43.002Z,21.43
2018-11-11T18:22:11.260Z,23.17
2018-11-11T18:24:39.532Z,22.13
2018-11-11T18:27:07.888Z,22.33
2018-11-11T18:29:36.221Z,21.63
2018-11-11T18:32:04.968Z,22.03
2018-11-11T18:34:33.309Z,22.57
2018-11-11T18:37:01.493Z,22.23
2018-11-11T18:39:29.769Z,21.63
2018-11-11T18:41:58.034Z,20.47
2018-11-11T18:44:26.333Z,21.80
2018-11-11T18:46:54.646Z,21.77
2018-11-11T18:49:23.022Z,22.53
2018-11-11T18:51:51.301Z,26.07
2018-11-11T18:54:19.576Z,24.27
2018-11-11T18:56:47.903Z,20.80
2018-11-11T18:59:16.258Z,18.93
2018-11-11T19:01:45.311Z,18.77
2018-11-11T19:04:13.597Z,19.97
2018-11-11T19:06:41.852Z,18.17
2018-11-11T19:09:11.986Z,19.70
2018-11-11T19:11:40.322Z,20.17
2018-11-11T19:14:09.152Z,18.97
2018-11-11T19:16:37.733Z,17.27
2018-11-11T19:19:06.537Z,16.80
2018-11-11T19:21:35.090Z,21.17
2018-11-11T19:24:03.568Z,20.50
2018-11-11T19:26:31.975Z,21.83
2018-11-11T19:29:00.284Z,16.47
2018-11-11T19:31:28.577Z,18.60
2018-11-11T19:33:56.842Z,18.23
2018-11-11T19:36:25.129Z,19.70
2018-11-11T19:38:54.173Z,19.43
2018-11-11T19:41:22.477Z,19.07
2018-11-11T19:43:50.701Z,20.20
2018-11-11T19:46:19.051Z,19.73
2018-11-11T19:48:47.250Z,19.43
2018-11-11T19:51:15.525Z,20.07
2018-11-11T19:53:43.841Z,18.30
2018-11-11T19:56:12.121Z,20.67
2018-11-11T19:58:40.418Z,25.67
2018-11-11T20:01:08.701Z,24.40
2018-11-11T20:03:37.145Z,23.60
2018-11-11T20:06:06.291Z,21.17
2018-11-11T20:08:34.548Z,24.33
2018-11-11T20:11:02.876Z,22.10
2018-11-11T20:13:31.161Z,22.50
2018-11-11T20:15:59.429Z,20.27
2018-11-11T20:18:27.696Z,21.30
2018-11-11T20:20:55.964Z,23.90
2018-11-11T20:23:24.244Z,23.87
2018-11-11T20:25:52.563Z,23.40
2018-11-11T20:28:20.916Z,23.33
2018-11-11T20:30:49.130Z,23.00
2018-11-11T20:33:17.432Z,24.03
2018-11-11T20:35:45.732Z,25.23
2018-11-11T20:38:14.033Z,24.43
2018-11-11T20:40:42.335Z,24.70
2018-11-11T20:43:10.659Z,25.20
2018-11-11T20:45:38.935Z,24.30
2018-11-11T20:48:07.197Z,25.43
2018-11-11T20:50:35.456Z,24.40
2018-11-11T20:53:05.076Z,23.47
2018-11-11T20:55:33.417Z,23.17
2018-11-11T20:58:01.913Z,24.07
2018-11-11T21:00:32.017Z,23.67
2018-11-11T21:03:00.296Z,23.80
2018-11-11T21:05:29.076Z,23.33
2018-11-11T21:07:57.431Z,23.57
2018-11-11T21:10:26.885Z,23.40
2018-11-11T21:12:55.897Z,21.93
2018-11-11T21:15:27.867Z,21.60
2018-11-11T21:17:57.023Z,21.30
2018-11-11T21:20:27.495Z,21.90
2018-11-11T21:22:56.260Z,21.33
2018-11-11T21:25:24.589Z,21.73
2018-11-11T21:27:59.202Z,21.93
2018-11-11T21:30:28.722Z,20.80
2018-11-11T21:32:57.096Z,19.47
2018-11-11T21:35:25.411Z,16.60
2018-11-11T21:37:53.745Z,16.53
2018-11-11T21:40:23.269Z,18.47
2018-11-11T21:42:52.320Z,15.17
2018-11-11T21:45:21.731Z,17.40
2018-11-11T21:47:50.116Z,17.60
2018-11-11T21:50:22.969Z,16.13
2018-11-11T21:53:56.076Z,15.67
2018-11-11T21:56:24.487Z,18.23
2018-11-11T21:58:52.837Z,18.40
2018-11-11T22:01:23.449Z,18.67
2018-11-11T22:03:51.717Z,16.43
2018-11-11T22:06:20.019Z,14.83
2018-11-11T22:08:48.292Z,14.77
2018-11-11T22:11:17.184Z,16.43
2018-11-11T22:13:45.442Z,15.93
2018-11-11T22:16:13.816Z,14.47
2018-11-11T22:18:42.121Z,19.20
2018-11-11T22:21:10.451Z,20.40
2018-11-11T22:23:38.742Z,20.17
2018-11-11T22:26:07.057Z,19.27
2018-11-11T22:28:35.353Z,19.73
2018-11-11T22:31:03.693Z,22.97
2018-11-11T22:33:32.017Z,22.93
2018-11-11T22:36:00.324Z,23.43
2018-11-11T22:38:28.602Z,23.10
2018-11-11T22:40:57.736Z,23.30
2018-11-11T22:43:26.023Z,25.20
2018-11-11T22:45:54.349Z,23.73
2018-11-11T22:48:22.656Z,24.00
2018-11-11T22:50:51.324Z,23.37
2018-11-11T22:53:19.649Z,22.60
2018-11-11T22:55:48.055Z,23.07
2018-11-11T22:58:16.370Z,23.77
2018-11-11T23:00:49.996Z,21.83
2018-11-11T23:03:18.309Z,22.30
2018-11-11T23:05:46.997Z,22.20
2018-11-11T23:08:15.449Z,22.43
2018-11-11T23:10:43.776Z,23.10
2018-11-11T23:13:12.237Z,22.23
2018-11-11T23:15:40.556Z,22.07
2018-11-11T23:18:08.896Z,23.40
2018-11-11T23:20:37.238Z,23.20
2018-11-11T23:23:05.623Z,22.27
2018-11-11T23:25:33.957Z,22.20
2018-11-11T23:28:02.247Z,21.10
2018-11-11T23:30:30.605Z,23.53
2018-11-11T23:32:58.901Z,22.13
2018-11-11T23:35:27.174Z,20.23
2018-11-11T23:37:55.455Z,17.73
2018-11-11T23:40:23.742Z,18.40
2018-11-11T23:42:52.022Z,20.80
2018-11-11T23:45:20.335Z,20.77
2018-11-11T23:47:48.589Z,19.10
2018-11-11T23:50:18.220Z,21.23
2018-11-11T23:52:46.910Z,20.60
2018-11-11T23:55:16.409Z,21.80
2018-11-11T23:57:44.673Z,21.50
